Time;durP1;ratioP1;P1;durP2;ratioP2;P2;SDS_P1;SDS_P2;PMS_P1;PMS_P2;Temp;Humidity;BMP_temperature;BMP_pressure;BME280_temperature;BME280_humidity;BME280_pressure;Samples;Min_cycle;Max_cycle;Signal;HPM_P1;HPM_P2
2022/05/06 00:03:45;;;;;;;8.30;6.50;;;9.40;97.90;;;;;;10435670;28;20207;-79
2022/05/06 00:09:06;;;;;;;10.43;6.03;;;9.40;99.40;;;;;;10435968;28;20249;-79
2022/05/06 00:14:28;;;;;;;9.57;6.37;;;9.40;99.90;;;;;;10471848;28;20203;-80
2022/05/06 00:19:49;;;;;;;8.73;6.27;;;9.50;99.90;;;;;;10462741;28;20237;-79
2022/05/06 00:25:11;;;;;;;11.03;6.13;;;9.50;97.40;;;;;;10467230;28;20283;-79
2022/05/06 00:30:33;;;;;;;9.67;5.83;;;9.40;99.90;;;;;;10435814;28;20219;-79
2022/05/06 00:35:55;;;;;;;7.60;5.63;;;9.30;99.90;;;;;;10421237;28;20202;-82
2022/05/06 00:41:17;;;;;;;9.17;6.20;;;9.20;99.80;;;;;;10435473;28;20302;-78
2022/05/06 00:46:39;;;;;;;7.13;5.67;;;9.10;94.60;;;;;;10432253;28;20224;-79
2022/05/06 00:52:00;;;;;;;8.80;5.97;;;9.00;91.60;;;;;;10457232;28;20234;-78
2022/05/06 00:57:22;;;;;;;11.80;6.93;;;9.00;94.20;;;;;;10457414;28;20520;-79
2022/05/06 01:02:43;;;;;;;10.30;5.53;;;8.90;94.20;;;;;;10443497;28;20227;-80
2022/05/06 01:08:06;;;;;;;9.07;5.90;;;8.80;95.60;;;;;;10443487;28;20494;-79
2022/05/06 01:13:28;;;;;;;8.40;5.70;;;8.80;94.90;;;;;;10441868;28;20198;-79
2022/05/06 01:18:51;;;;;;;11.63;6.00;;;8.70;95.40;;;;;;10484595;28;20537;-78
2022/05/06 01:24:12;;;;;;;9.60;5.80;;;8.60;97.00;;;;;;10482838;28;20515;-78
2022/05/06 01:29:37;;;;;;;10.37;5.70;;;8.60;97.40;;;;;;10428425;28;20240;-78
2022/05/06 01:35:00;;;;;;;9.57;6.03;;;8.60;97.60;;;;;;10427623;28;20213;-78
2022/05/06 01:40:24;;;;;;;10.30;6.40;;;8.50;99.40;;;;;;10427650;28;20230;-78
2022/05/06 01:45:48;;;;;;;13.70;6.80;;;8.40;96.10;;;;;;10441520;28;20537;-78
2022/05/06 01:51:15;;;;;;;8.57;6.17;;;8.30;98.30;;;;;;10427055;28;20242;-80
2022/05/06 01:56:36;;;;;;;8.57;6.27;;;8.20;98.60;;;;;;10440104;28;20377;-78
2022/05/06 02:01:58;;;;;;;9.63;5.83;;;8.10;95.70;;;;;;10440161;28;20233;-79
2022/05/06 02:07:24;;;;;;;7.77;6.20;;;8.00;99.20;;;;;;10400071;28;20202;-78
2022/05/06 02:12:45;;;;;;;11.87;6.27;;;8.00;99.90;;;;;;10440855;28;20198;-79
2022/05/06 02:18:36;;;;;;;9.53;6.07;;;7.90;99.90;;;;;;10480880;28;20201;-78
2022/05/06 02:24:06;;;;;;;9.50;5.70;;;7.90;99.90;;;;;;10481330;28;20372;-78
2022/05/06 02:35:31;;;;;;;11.80;7.43;;;7.80;99.90;;;;;;10453522;28;20208;-78
2022/05/06 02:40:54;;;;;;;17.70;9.47;;;7.80;99.90;;;;;;10439127;28;20227;-78
2022/05/06 02:46:17;;;;;;;16.37;9.17;;;7.70;99.90;;;;;;10439063;28;20220;-78
2022/05/06 02:51:39;;;;;;;13.97;9.37;;;7.60;99.90;;;;;;10427389;28;20543;-78
2022/05/06 02:57:02;;;;;;;12.77;9.37;;;7.50;97.00;;;;;;10438194;28;20214;-79
2022/05/06 03:02:24;;;;;;;16.63;9.53;;;7.40;99.90;;;;;;10423922;28;20240;-79
2022/05/06 03:07:51;;;;;;;15.70;9.60;;;7.40;99.90;;;;;;10410885;28;20219;-79
2022/05/06 03:13:16;;;;;;;13.57;7.97;;;7.40;99.90;;;;;;10432928;28;20197;-79
2022/05/06 03:18:38;;;;;;;11.80;8.70;;;7.30;99.90;;;;;;10464992;28;20437;-78
2022/05/06 03:24:00;;;;;;;20.70;11.07;;;7.20;99.90;;;;;;10478837;28;20451;-78
2022/05/06 03:29:22;;;;;;;25.80;14.30;;;7.20;95.20;;;;;;10382659;28;20191;-79
2022/05/06 03:34:43;;;;;;;20.93;12.40;;;7.10;99.90;;;;;;10382825;28;20210;-79
2022/05/06 03:40:06;;;;;;;23.20;12.10;;;7.10;96.30;;;;;;10382158;28;20237;-79
2022/05/06 03:45:29;;;;;;;19.03;10.97;;;7.20;99.90;;;;;;10396112;28;20494;-79
2022/05/06 03:56:34;;;;;;;22.97;11.93;;;7.30;92.20;;;;;;10395278;28;20229;-79
2022/05/06 04:02:00;;;;;;;17.87;11.87;;;7.20;94.50;;;;;;10414913;28;20228;-78
2022/05/06 04:07:28;;;;;;;14.37;9.73;;;7.20;97.50;;;;;;10449138;28;20200;-79
2022/05/06 04:12:50;;;;;;;15.83;9.60;;;7.20;99.90;;;;;;10457219;28;20198;-78
2022/05/06 04:18:12;;;;;;;14.03;8.97;;;7.20;99.90;;;;;;10476517;28;20487;-78
2022/05/06 04:23:37;;;;;;;11.97;8.50;;;7.40;99.90;;;;;;10449182;28;20299;-78
2022/05/06 04:29:04;;;;;;;11.50;7.93;;;7.50;99.90;;;;;;10394734;28;20266;-79
2022/05/06 04:34:25;;;;;;;12.03;7.20;;;7.70;99.90;;;;;;10394780;28;20270;-78
2022/05/06 04:39:47;;;;;;;9.57;7.33;;;7.90;99.90;;;;;;10394260;28;20230;-78
2022/05/06 04:45:09;;;;;;;19.03;10.07;;;8.10;99.90;;;;;;10394663;28;20262;-78
2022/05/06 04:50:42;;;;;;;14.37;8.67;;;8.20;99.90;;;;;;10394482;28;20235;-79
2022/05/06 04:56:04;;;;;;;16.13;8.83;;;8.10;99.90;;;;;;10394035;28;20203;-79
2022/05/06 05:01:32;;;;;;;13.20;9.00;;;8.10;99.90;;;;;;10420627;28;20233;-80
2022/05/06 05:06:54;;;;;;;10.13;8.20;;;8.10;99.90;;;;;;10434080;28;20562;-79
2022/05/06 05:12:16;;;;;;;17.50;9.00;;;8.30;99.90;;;;;;10437422;28;20208;-80
2022/05/06 05:17:41;;;;;;;14.37;8.80;;;8.50;99.90;;;;;;10461563;28;20202;-79
2022/05/06 05:23:02;;;;;;;15.17;10.13;;;8.60;99.90;;;;;;10461866;28;20296;-80
2022/05/06 05:28:27;;;;;;;10.63;8.00;;;8.80;99.90;;;;;;10411946;28;20231;-79
2022/05/06 05:33:49;;;;;;;13.20;8.57;;;9.00;99.90;;;;;;10441738;28;20195;-79
2022/05/06 05:39:11;;;;;;;16.90;9.17;;;9.10;99.90;;;;;;10441131;28;20208;-80
2022/05/06 05:50:23;;;;;;;14.00;9.00;;;9.80;99.90;;;;;;10454971;28;20200;-79
2022/05/06 05:55:45;;;;;;;13.77;9.07;;;10.40;96.30;;;;;;10426949;28;20263;-79
2022/05/06 06:01:11;;;;;;;12.37;7.40;;;10.90;63.30;;;;;;10440057;28;20231;-80
2022/05/06 06:06:34;;;;;;;14.37;8.60;;;11.30;42.00;;;;;;10425048;28;20199;-78
2022/05/06 06:11:55;;;;;;;12.37;7.73;;;11.90;12.80;;;;;;10440202;28;20346;-79
2022/05/06 06:17:17;;;;;;;10.02;6.22;;;12.60;1.00;;;;;;10481296;28;20238;-78
2022/05/06 06:22:39;;;;;;;10.70;6.07;;;13.30;1.00;;;;;;10466639;28;20233;-79
2022/05/06 06:28:02;;;;;;;11.52;5.45;;;14.00;1.00;;;;;;10433076;28;20208;-81
2022/05/06 06:33:24;;;;;;;10.77;6.18;;;14.70;1.00;;;;;;10425241;28;20207;-80
2022/05/06 06:38:46;;;;;;;11.38;5.38;;;15.10;1.00;;;;;;10438932;28;20266;-80
2022/05/06 06:44:08;;;;;;;9.90;4.00;;;15.70;1.00;;;;;;10424722;28;20459;-80
2022/05/06 06:49:49;;;;;;;7.97;4.20;;;16.30;99.90;;;;;;10438282;28;20203;-79
2022/05/06 06:55:24;;;;;;;9.80;3.65;;;16.90;99.90;;;;;;10424420;28;20370;-82
2022/05/06 07:00:45;;;;;;;4.90;3.28;;;17.30;1.00;;;;;;10438021;28;20257;-79
2022/05/06 07:11:58;;;;;;;4.32;2.92;;;17.90;99.90;;;;;;10450496;28;20490;-79
2022/05/06 07:17:29;;;;;;;3.53;2.72;;;18.10;99.90;;;;;;10464445;28;20395;-78
2022/05/06 07:22:50;;;;;;;3.38;2.58;;;18.30;99.90;;;;;;10451869;28;20585;-78
2022/05/06 07:28:12;;;;;;;4.38;2.90;;;18.40;99.90;;;;;;10443210;28;20235;-79
2022/05/06 07:33:34;;;;;;;5.60;2.90;;;18.60;1.00;;;;;;10402739;28;20200;-78
2022/05/06 07:38:55;;;;;;;5.88;2.95;;;18.90;1.00;;;;;;10426661;28;20567;-78
2022/05/06 07:44:16;;;;;;;5.60;2.55;;;19.30;99.90;;;;;;10400020;28;20236;-79
2022/05/06 07:49:38;;;;;;;7.00;2.63;;;19.90;1.00;;;;;;10389893;28;20287;-79
2022/05/06 07:55:00;;;;;;;6.13;2.80;;;20.00;1.00;;;;;;10375110;28;20249;-78
2022/05/06 08:00:24;;;;;;;3.92;2.92;;;20.20;99.90;;;;;;10425736;28;20546;-76
2022/05/06 08:05:47;;;;;;;3.90;2.67;;;20.40;14.60;;;;;;10429698;28;20454;-80
2022/05/06 08:11:08;;;;;;;5.72;2.40;;;20.80;1.00;;;;;;10436944;28;20227;-79
2022/05/06 08:16:30;;;;;;;3.08;2.20;;;21.10;1.00;;;;;;10472192;28;20199;-79
2022/05/06 08:21:53;;;;;;;5.32;2.70;;;20.70;1.00;;;;;;10431474;28;20247;-78
2022/05/06 08:27:14;;;;;;;6.15;2.60;;;20.70;1.00;;;;;;10414925;28;20239;-78
2022/05/06 08:32:36;;;;;;;3.63;2.03;;;19.70;1.00;;;;;;10429707;28;20208;-79
2022/05/06 08:37:58;;;;;;;2.40;2.00;;;20.10;1.00;;;;;;10413302;28;20189;-78
2022/05/06 08:43:19;;;;;;;2.92;1.88;;;19.60;1.00;;;;;;10388905;28;20221;-77
2022/05/06 08:54:26;;;;;;;6.75;2.00;;;19.40;1.00;;;;;;10389621;28;20240;-78
2022/05/06 08:59:52;;;;;;;3.42;1.92;;;18.90;30.00;;;;;;10389135;28;20554;-78
2022/05/06 09:05:18;;;;;;;3.72;2.30;;;18.20;99.90;;;;;;10437553;28;20227;-78
2022/05/06 09:10:39;;;;;;;6.50;2.42;;;19.10;1.00;;;;;;10441429;28;20528;-79
2022/05/06 09:16:44;;;;;;;3.20;2.17;;;19.50;99.90;;;;;;10463930;28;20518;-79
2022/05/06 09:22:13;;;;;;;3.55;2.38;;;19.70;22.70;;;;;;10438917;28;20224;-77
2022/05/06 09:27:34;;;;;;;1.95;1.70;;;19.40;34.10;;;;;;10393505;28;20255;-79
2022/05/06 09:32:55;;;;;;;6.82;2.90;;;18.70;1.00;;;;;;10409072;28;20197;-79
2022/05/06 09:38:17;;;;;;;5.45;1.90;;;18.90;88.90;;;;;;10395074;28;20201;-79
2022/05/06 09:43:57;;;;;;;3.70;1.80;;;18.90;32.10;;;;;;10425046;28;20302;-77
2022/05/06 09:49:18;;;;;;;2.83;1.90;;;18.20;36.00;;;;;;10436751;28;20209;-79
2022/05/06 09:54:57;;;;;;;3.60;1.90;;;17.70;99.90;;;;;;10428195;28;20240;-77
2022/05/06 10:00:19;;;;;;;3.28;1.88;;;18.40;99.90;;;;;;10412907;28;20233;-78
2022/05/06 10:05:40;;;;;;;6.95;4.85;;;19.80;1.00;;;;;;10404408;28;20197;-80
2022/05/06 10:11:04;;;;;;;4.75;2.20;;;19.20;1.00;;;;;;10419904;28;20373;-79
2022/05/06 10:16:36;;;;;;;9.13;5.60;;;18.40;1.00;;;;;;10404038;28;20531;-78
2022/05/06 10:21:57;;;;;;;3.63;2.60;;;17.90;99.90;;;;;;10448114;28;20570;-80
2022/05/06 10:27:22;;;;;;;6.80;2.45;;;17.60;99.90;;;;;;10406980;28;20431;-81
2022/05/06 10:32:58;;;;;;;3.58;2.35;;;18.00;1.00;;;;;;10422229;28;20188;-79
2022/05/06 10:38:23;;;;;;;3.10;2.42;;;18.20;1.00;;;;;;10419599;28;20408;-79
2022/05/06 10:43:48;;;;;;;3.60;2.17;;;18.30;1.00;;;;;;10419735;28;20228;-80
2022/05/06 10:49:51;;;;;;;3.15;2.40;;;18.10;1.00;;;;;;10433461;28;20250;-80
2022/05/06 10:55:17;;;;;;;5.40;2.83;;;17.70;1.00;;;;;;10434014;28;20246;-80
2022/05/06 11:00:40;;;;;;;6.05;3.05;;;17.30;1.00;;;;;;10433664;28;20249;-80
2022/05/06 11:06:01;;;;;;;6.22;2.78;;;17.10;99.90;;;;;;10431099;28;20211;-80
2022/05/06 11:11:23;;;;;;;5.00;2.72;;;17.00;1.00;;;;;;10428146;28;20196;-80
2022/05/06 11:16:44;;;;;;;4.25;2.58;;;17.00;1.00;;;;;;10459041;28;20199;-81
2022/05/06 11:22:09;;;;;;;3.40;2.60;;;17.10;1.00;;;;;;10416949;28;20560;-80
2022/05/06 11:27:30;;;;;;;3.42;2.75;;;17.30;99.90;;;;;;10420345;28;20246;-79
2022/05/06 11:32:55;;;;;;;3.17;2.25;;;17.40;99.90;;;;;;10394342;28;20212;-80
2022/05/06 11:38:33;;;;;;;3.30;2.17;;;17.40;99.90;;;;;;10410055;28;20204;-80
2022/05/06 11:44:03;;;;;;;5.22;2.95;;;17.50;1.00;;;;;;10417350;28;20220;-80
2022/05/06 11:49:29;;;;;;;2.92;2.05;;;17.70;1.00;;;;;;10426472;28;20197;-78
2022/05/06 11:54:50;;;;;;;2.85;1.80;;;17.80;99.90;;;;;;10389683;28;20263;-80
2022/05/06 12:00:15;;;;;;;3.95;1.40;;;17.60;1.00;;;;;;10418305;28;20433;-80
2022/05/06 12:05:39;;;;;;;2.50;1.58;;;17.30;1.00;;;;;;10396505;28;20277;-80
2022/05/06 12:11:07;;;;;;;2.25;1.60;;;17.50;1.00;;;;;;10432683;28;20270;-80
2022/05/06 12:16:29;;;;;;;2.97;2.03;;;18.10;1.00;;;;;;10471362;28;20212;-79
2022/05/06 12:21:52;;;;;;;2.60;1.95;;;18.10;1.00;;;;;;10417915;28;20549;-78
2022/05/06 12:27:29;;;;;;;2.53;1.45;;;18.10;1.00;;;;;;10420333;28;20240;-80
2022/05/06 12:33:08;;;;;;;3.58;3.08;;;18.70;1.00;;;;;;10430432;28;20241;-79
2022/05/06 12:38:47;;;;;;;4.68;1.85;;;18.80;99.90;;;;;;10460030;28;20205;-79
2022/05/06 12:44:18;;;;;;;3.83;1.70;;;18.70;99.90;;;;;;10452518;28;20223;-79
2022/05/06 12:49:52;;;;;;;4.00;1.92;;;18.60;30.30;;;;;;10424810;28;20519;-84
2022/05/06 12:55:15;;;;;;;3.10;1.52;;;18.90;10.60;;;;;;10397662;28;20243;-82
2022/05/06 13:00:37;;;;;;;3.13;1.75;;;18.70;1.00;;;;;;10398174;28;20296;-78
2022/05/06 13:05:58;;;;;;;1.40;1.30;;;19.20;1.00;;;;;;10419063;28;20211;-85
2022/05/06 13:11:20;;;;;;;3.08;2.10;;;19.10;1.00;;;;;;10410691;28;20188;-79
2022/05/06 13:16:41;;;;;;;4.30;1.90;;;18.80;1.00;;;;;;10478308;28;20242;-84
2022/05/06 13:22:02;;;;;;;1.95;1.45;;;18.50;1.00;;;;;;10403462;28;20231;-83
2022/05/06 13:27:24;;;;;;;4.35;1.58;;;18.50;1.00;;;;;;10434720;28;20409;-80
2022/05/06 13:32:45;;;;;;;3.85;2.30;;;18.40;1.00;;;;;;10446023;28;20201;-78
2022/05/06 13:38:07;;;;;;;5.95;2.22;;;18.20;1.00;;;;;;10402769;28;20201;-94
2022/05/06 13:43:28;;;;;;;2.38;1.77;;;18.30;1.00;;;;;;10382052;28;20233;-80
2022/05/06 13:48:50;;;;;;;2.85;1.48;;;18.40;1.00;;;;;;10394557;28;20365;-79
2022/05/06 13:54:11;;;;;;;12.05;8.25;;;18.50;1.00;;;;;;10383539;28;20251;-79
2022/05/06 13:59:33;;;;;;;3.88;2.53;;;19.10;99.90;;;;;;10422165;28;20517;-79
2022/05/06 14:04:54;;;;;;;2.33;2.00;;;19.50;99.90;;;;;;10412502;28;20240;-82
2022/05/06 14:10:18;;;;;;;3.72;1.92;;;19.80;99.90;;;;;;10437265;28;20246;-78
2022/05/06 14:15:40;;;;;;;3.30;2.20;;;19.70;99.90;;;;;;10453147;28;20197;-78
2022/05/06 14:21:02;;;;;;;3.47;2.08;;;19.30;92.00;;;;;;10427044;28;20223;-80
2022/05/06 14:26:24;;;;;;;5.32;2.60;;;18.90;99.90;;;;;;10413577;28;20458;-80
2022/05/06 14:31:45;;;;;;;4.93;2.30;;;18.80;99.90;;;;;;10435275;28;20284;-79
2022/05/06 14:37:06;;;;;;;3.88;2.80;;;18.80;99.90;;;;;;10418131;28;20181;-78
2022/05/06 14:42:29;;;;;;;5.00;3.40;;;18.80;99.90;;;;;;10433789;28;20425;-78
2022/05/06 14:47:50;;;;;;;9.30;2.85;;;18.70;99.90;;;;;;10420232;28;20204;-79
2022/05/06 14:53:12;;;;;;;4.32;2.70;;;18.50;99.90;;;;;;10414668;28;20455;-81
2022/05/06 14:58:33;;;;;;;3.72;2.20;;;18.40;99.90;;;;;;10434197;28;20459;-80
2022/05/06 15:03:54;;;;;;;5.20;2.92;;;18.60;99.90;;;;;;10460788;28;20224;-78
2022/05/06 15:09:20;;;;;;;4.75;2.65;;;18.50;99.90;;;;;;10410550;28;20189;-79
2022/05/06 15:14:42;;;;;;;3.60;2.40;;;18.50;99.90;;;;;;10455190;28;20266;-81
2022/05/06 15:20:05;;;;;;;3.33;2.28;;;18.50;99.90;;;;;;10443157;28;20204;-82
2022/05/06 15:25:26;;;;;;;3.70;2.90;;;18.30;99.90;;;;;;10430148;28;20240;-80
2022/05/06 15:30:50;;;;;;;4.38;3.28;;;18.10;99.90;;;;;;10439867;28;20211;-80
2022/05/06 15:36:12;;;;;;;6.13;2.67;;;18.00;99.90;;;;;;10438916;28;20226;-81
2022/05/06 15:41:33;;;;;;;3.60;2.30;;;18.00;99.90;;;;;;10440769;28;20295;-81
2022/05/06 15:46:55;;;;;;;4.28;3.13;;;18.00;99.90;;;;;;10438440;28;20246;-79
2022/05/06 15:52:18;;;;;;;4.13;2.97;;;17.90;99.90;;;;;;10437287;28;20263;-80
2022/05/06 15:57:39;;;;;;;4.18;2.85;;;17.90;99.90;;;;;;10439436;28;20204;-79
2022/05/06 16:03:01;;;;;;;7.13;3.97;;;17.80;1.00;;;;;;10425864;28;20235;-79
2022/05/06 16:08:22;;;;;;;7.45;4.47;;;17.80;1.00;;;;;;10394717;28;20200;-83
2022/05/06 16:13:43;;;;;;;4.85;3.53;;;17.60;1.00;;;;;;10439059;28;20347;-83
2022/05/06 16:19:06;;;;;;;6.82;3.17;;;17.50;1.00;;;;;;10479363;28;20192;-83
2022/05/06 16:24:28;;;;;;;6.05;3.20;;;17.30;1.00;;;;;;10465507;28;20228;-79
2022/05/06 16:29:49;;;;;;;5.03;3.38;;;17.30;1.00;;;;;;10422649;28;20204;-77
2022/05/06 16:40:53;;;;;;;6.53;3.47;;;17.50;1.00;;;;;;10447829;28;20227;-78
2022/05/06 16:46:14;;;;;;;7.00;4.32;;;17.30;1.00;;;;;;10441874;28;20310;-84
2022/05/06 16:51:36;;;;;;;7.63;4.18;;;17.20;1.00;;;;;;10438017;28;20270;-81
2022/05/06 16:56:58;;;;;;;4.10;3.17;;;17.00;1.00;;;;;;10436392;28;20533;-79
2022/05/06 17:02:20;;;;;;;5.97;3.38;;;16.90;63.90;;;;;;10421513;28;20239;-79
2022/05/06 17:07:42;;;;;;;8.07;4.00;;;16.70;99.90;;;;;;10435094;28;20246;-80
2022/05/06 17:13:03;;;;;;;7.30;3.60;;;16.40;99.90;;;;;;10458338;28;20544;-79
2022/05/06 17:18:25;;;;;;;5.38;2.85;;;16.20;99.90;;;;;;10476418;28;20190;-81
2022/05/06 17:23:46;;;;;;;5.38;2.42;;;15.90;99.90;;;;;;10470609;28;20524;-79
2022/05/06 17:29:08;;;;;;;5.18;2.80;;;15.70;99.90;;;;;;10427894;28;20393;-79
2022/05/06 17:34:29;;;;;;;4.35;2.85;;;15.50;99.90;;;;;;10415386;28;20257;-79
2022/05/06 17:39:51;;;;;;;4.75;2.75;;;15.30;1.00;;;;;;10446463;28;20404;-79
2022/05/06 17:45:14;;;;;;;5.00;2.28;;;15.10;1.00;;;;;;10443239;28;20405;-81
2022/05/06 17:50:36;;;;;;;4.95;2.00;;;15.00;1.00;;;;;;10441470;28;20208;-79
2022/05/06 17:55:57;;;;;;;4.32;2.20;;;14.90;1.00;;;;;;10442315;28;20218;-80
2022/05/06 18:01:21;;;;;;;4.60;2.75;;;14.70;1.00;;;;;;10442326;28;20212;-82
2022/05/06 18:06:42;;;;;;;8.30;3.95;;;14.60;99.90;;;;;;10441862;28;20522;-79
2022/05/06 18:12:03;;;;;;;6.43;3.10;;;14.50;99.90;;;;;;10441686;28;20199;-80
2022/05/06 18:17:25;;;;;;;5.78;3.05;;;14.40;1.00;;;;;;10454533;28;20208;-81
2022/05/06 18:22:46;;;;;;;8.60;4.65;;;14.30;99.90;;;;;;10483207;28;20404;-80
2022/05/06 18:28:08;;;;;;;6.45;4.40;;;14.10;7.30;;;;;;10429208;28;20210;-82
2022/05/06 18:33:29;;;;;;;6.47;3.25;;;13.90;1.00;;;;;;10440023;28;20211;-80
2022/05/06 18:38:50;;;;;;;7.35;4.07;;;13.70;1.00;;;;;;10425614;28;20498;-82
2022/05/06 18:44:12;;;;;;;6.90;3.78;;;13.60;1.00;;;;;;10440472;28;20288;-79
2022/05/06 18:49:33;;;;;;;8.00;3.47;;;13.50;1.00;;;;;;10440407;28;20241;-82
2022/05/06 18:54:54;;;;;;;5.72;2.80;;;13.50;21.60;;;;;;10439051;28;20307;-79
2022/05/06 19:00:16;;;;;;;6.90;3.03;;;13.30;99.90;;;;;;10424929;28;20203;-82
2022/05/06 19:05:37;;;;;;;4.13;2.95;;;13.20;1.00;;;;;;10438864;28;20229;-80
2022/05/06 19:11:00;;;;;;;4.60;2.65;;;13.10;1.00;;;;;;10430146;28;20274;-78
2022/05/06 19:16:21;;;;;;;12.13;4.78;;;12.90;2.20;;;;;;10465515;28;20217;-80
2022/05/06 19:27:26;;;;;;;10.60;4.30;;;12.80;99.90;;;;;;10442165;28;20201;-78
2022/05/06 19:32:48;;;;;;;7.80;3.85;;;12.70;99.90;;;;;;10451649;28;20195;-79
2022/05/06 19:38:09;;;;;;;6.97;4.13;;;12.70;99.90;;;;;;10437069;28;20224;-76
2022/05/06 19:43:30;;;;;;;8.82;4.05;;;12.50;99.90;;;;;;10423077;28;20235;-78
2022/05/06 19:48:52;;;;;;;4.47;2.85;;;12.50;99.90;;;;;;10422245;28;20222;-81
2022/05/06 19:54:13;;;;;;;8.07;3.88;;;12.40;1.00;;;;;;10437607;28;20241;-81
2022/05/06 19:59:34;;;;;;;9.90;4.85;;;12.30;1.00;;;;;;10438311;28;20240;-83
2022/05/06 20:04:56;;;;;;;7.78;5.43;;;12.30;1.00;;;;;;10436530;28;20269;-81
2022/05/06 20:10:17;;;;;;;8.55;5.53;;;12.20;1.00;;;;;;10437179;28;20220;-78
2022/05/06 20:15:39;;;;;;;8.35;6.25;;;12.20;1.00;;;;;;10466378;28;20201;-79
2022/05/06 20:21:01;;;;;;;9.30;4.68;;;12.10;1.00;;;;;;10478363;28;20195;-79
2022/05/06 20:26:23;;;;;;;5.20;3.80;;;12.00;1.00;;;;;;10448757;28;20210;-79
2022/05/06 20:31:45;;;;;;;4.82;3.22;;;11.90;1.00;;;;;;10437027;28;20196;-79
2022/05/06 20:37:06;;;;;;;4.35;3.05;;;11.80;1.00;;;;;;10436635;28;20259;-82
2022/05/06 20:42:30;;;;;;;4.30;2.55;;;11.60;1.00;;;;;;10421804;28;20232;-82
2022/05/06 20:47:51;;;;;;;4.63;2.92;;;11.50;1.00;;;;;;10436882;28;20197;-78
2022/05/06 20:53:14;;;;;;;5.45;2.90;;;11.40;1.00;;;;;;10435241;28;20228;-78
2022/05/06 21:04:15;;;;;;;8.43;4.22;;;11.40;1.00;;;;;;10443176;28;20560;-79
2022/05/06 21:15:16;;;;;;;20.75;9.90;;;11.30;1.00;;;;;;10484202;28;20238;-83
2022/05/06 21:20:38;;;;;;;40.33;21.10;;;11.20;1.00;;;;;;10483887;28;20242;-82
2022/05/06 21:25:59;;;;;;;45.42;21.85;;;11.00;1.00;;;;;;10458997;28;20220;-80
2022/05/06 21:31:21;;;;;;;33.33;16.87;;;10.80;1.00;;;;;;10429077;28;20204;-79
2022/05/06 21:36:43;;;;;;;30.23;16.17;;;10.60;1.00;;;;;;10450530;28;20197;-80
2022/05/06 21:42:04;;;;;;;23.90;14.37;;;10.40;1.00;;;;;;10428116;28;20249;-79
2022/05/06 21:47:29;;;;;;;30.40;15.43;;;10.30;1.00;;;;;;10441564;28;20219;-80
2022/05/06 21:52:50;;;;;;;32.53;15.70;;;10.30;1.00;;;;;;10427100;28;20275;-79
2022/05/06 21:58:13;;;;;;;32.93;16.53;;;10.20;1.00;;;;;;10441488;28;20247;-78
2022/05/06 22:03:33;;;;;;;28.87;16.33;;;10.10;1.00;;;;;;10426985;28;20428;-79
2022/05/06 22:08:55;;;;;;;27.63;16.00;;;10.00;1.00;;;;;;10400991;28;20242;-83
2022/05/06 22:14:16;;;;;;;27.50;15.87;;;10.00;1.00;;;;;;10464857;28;20274;-81
2022/05/06 22:19:38;;;;;;;28.03;15.43;;;9.90;1.00;;;;;;10481422;28;20199;-79
2022/05/06 22:24:59;;;;;;;29.40;15.63;;;9.70;1.00;;;;;;10464912;28;20234;-80
2022/05/06 22:30:20;;;;;;;29.23;16.43;;;9.60;1.00;;;;;;10439919;28;20211;-79
2022/05/06 22:35:41;;;;;;;32.17;16.07;;;9.60;1.00;;;;;;10425527;28;20207;-80
2022/05/06 22:46:00;;;;;;;29.97;14.27;;;9.50;1.00;;;;;;10439522;28;20199;-83
2022/05/06 22:46:44;;;;;;;25.60;14.47;;;9.40;1.00;;;;;;10439385;28;20536;-79
2022/05/06 22:52:06;;;;;;;24.93;12.27;;;9.30;1.00;;;;;;10440288;28;20231;-79
2022/05/06 22:57:27;;;;;;;22.17;11.63;;;9.20;1.00;;;;;;10439381;28;20199;-78
2022/05/06 23:02:49;;;;;;;19.77;10.40;;;9.20;1.00;;;;;;10438912;28;20242;-84
2022/05/06 23:08:11;;;;;;;19.23;10.27;;;9.20;1.00;;;;;;10411723;28;20198;-83
2022/05/06 23:13:32;;;;;;;21.97;11.67;;;9.20;1.00;;;;;;10465572;28;20205;-83
2022/05/06 23:18:54;;;;;;;20.33;12.17;;;9.20;1.00;;;;;;10479556;28;20202;-79
2022/05/06 23:24:15;;;;;;;23.47;11.90;;;9.10;1.00;;;;;;10454466;28;20232;-79
2022/05/06 23:29:37;;;;;;;20.50;12.10;;;9.00;1.00;;;;;;10437448;28;20279;-80
2022/05/06 23:34:58;;;;;;;23.80;12.53;;;9.00;1.00;;;;;;10438652;28;20195;-79
2022/05/06 23:40:21;;;;;;;23.47;13.20;;;8.80;1.00;;;;;;10438558;28;20481;-83
2022/05/06 23:45:42;;;;;;;20.27;11.70;;;8.70;1.00;;;;;;10437960;28;20218;-79
2022/05/06 23:51:03;;;;;;;20.93;11.80;;;8.60;1.00;;;;;;10437023;28;20533;-78
2022/05/06 23:56:25;;;;;;;21.97;11.37;;;8.60;1.00;;;;;;10436947;28;20352;-80
